createdAt,value
2018-06-17T00:02:45.249Z,21.90
2018-06-17T00:05:14.649Z,21.90
2018-06-17T00:07:46.873Z,22.00
2018-06-17T00:10:17.354Z,21.80
2018-06-17T00:12:46.843Z,21.80
2018-06-17T00:15:15.980Z,21.70
2018-06-17T00:17:48.672Z,21.60
2018-06-17T00:20:21.406Z,21.60
2018-06-17T00:25:25.176Z,21.50
2018-06-17T00:27:55.524Z,21.50
2018-06-17T00:30:24.388Z,21.50
2018-06-17T00:32:54.386Z,21.70
2018-06-17T00:35:24.645Z,21.70
2018-06-17T00:37:54.982Z,21.80
2018-06-17T00:40:24.054Z,21.90
2018-06-17T00:42:54.857Z,21.90
2018-06-17T00:45:23.828Z,22.00
2018-06-17T00:50:25.724Z,21.90
2018-06-17T00:52:55.996Z,21.90
2018-06-17T00:55:28.220Z,21.90
2018-06-17T00:57:58.018Z,21.80
2018-06-17T01:00:31.973Z,21.90
2018-06-17T01:03:02.163Z,21.90
2018-06-17T01:05:31.110Z,22.00
2018-06-17T01:08:00.895Z,21.90
2018-06-17T01:10:30.400Z,21.90
2018-06-17T01:13:00.281Z,21.90
2018-06-17T01:15:29.561Z,21.90
2018-06-17T01:17:59.108Z,21.90
2018-06-17T01:20:27.953Z,21.90
2018-06-17T01:23:00.350Z,21.80
2018-06-17T01:25:29.350Z,21.80
2018-06-17T01:28:02.674Z,21.80
2018-06-17T01:30:32.381Z,21.80
2018-06-17T01:33:01.824Z,21.80
2018-06-17T01:35:31.176Z,21.90
2018-06-17T01:38:00.700Z,21.90
2018-06-17T01:40:29.533Z,21.90
2018-06-17T01:42:59.344Z,21.80
2018-06-17T01:45:29.594Z,21.70
2018-06-17T01:48:00.035Z,21.70
2018-06-17T01:50:29.351Z,21.70
2018-06-17T01:52:58.308Z,21.70
2018-06-17T01:57:57.347Z,21.60
2018-06-17T02:00:28.101Z,21.60
2018-06-17T02:02:58.041Z,21.60
2018-06-17T02:05:38.078Z,21.60
2018-06-17T02:08:12.494Z,21.50
2018-06-17T02:10:47.818Z,21.40
2018-06-17T02:13:16.693Z,21.40
2018-06-17T02:15:45.985Z,21.30
2018-06-17T02:18:15.497Z,21.40
2018-06-17T02:20:45.505Z,21.40
2018-06-17T02:23:14.940Z,21.40
2018-06-17T02:25:44.044Z,21.40
2018-06-17T02:28:14.893Z,21.30
2018-06-17T02:30:43.733Z,21.40
2018-06-17T02:33:13.030Z,21.50
2018-06-17T02:38:12.061Z,21.60
2018-06-17T02:40:41.004Z,21.60
2018-06-17T02:43:10.955Z,21.60
2018-06-17T02:45:44.992Z,21.60
2018-06-17T02:48:18.953Z,21.60
2018-06-17T02:50:53.369Z,21.60
2018-06-17T02:53:31.884Z,21.50
2018-06-17T02:56:01.992Z,21.60
2018-06-17T02:58:31.501Z,21.60
2018-06-17T03:01:01.552Z,21.60
2018-06-17T03:03:37.345Z,21.60
2018-06-17T03:06:10.221Z,21.40
2018-06-17T03:08:40.613Z,21.60
2018-06-17T03:11:10.072Z,21.50
2018-06-17T03:13:39.557Z,21.60
2018-06-17T03:16:08.523Z,21.50
2018-06-17T03:18:38.066Z,21.50
2018-06-17T03:21:12.352Z,21.50
2018-06-17T03:23:42.975Z,21.50
2018-06-17T03:26:16.846Z,21.40
2018-06-17T03:28:51.731Z,21.40
2018-06-17T03:31:21.028Z,21.40
2018-06-17T03:33:56.174Z,21.50
2018-06-17T03:36:24.924Z,21.50
2018-06-17T03:38:53.737Z,21.40
2018-06-17T03:41:22.564Z,21.50
2018-06-17T03:43:53.097Z,21.60
2018-06-17T03:46:22.302Z,21.60
2018-06-17T03:48:51.143Z,21.60
2018-06-17T03:51:19.992Z,21.80
2018-06-17T03:53:48.940Z,21.80
2018-06-17T03:56:17.871Z,21.80
2018-06-17T03:58:47.365Z,21.80
2018-06-17T04:01:17.221Z,21.80
2018-06-17T04:03:47.219Z,21.80
2018-06-17T04:06:16.061Z,21.90
2018-06-17T04:08:45.322Z,21.90
2018-06-17T04:11:14.729Z,21.90
2018-06-17T04:13:43.795Z,21.90
2018-06-17T04:16:12.812Z,21.90
2018-06-17T04:18:44.705Z,21.90
2018-06-17T04:21:13.526Z,22.00
2018-06-17T04:23:45.537Z,22.00
2018-06-17T04:26:14.909Z,21.90
2018-06-17T04:28:44.985Z,22.00
2018-06-17T04:33:42.156Z,22.10
2018-06-17T04:36:11.888Z,22.10
2018-06-17T04:38:42.265Z,22.20
2018-06-17T04:41:12.449Z,22.20
2018-06-17T04:43:41.817Z,22.20
2018-06-17T04:46:10.824Z,22.20
2018-06-17T04:48:39.865Z,22.10
2018-06-17T04:51:09.087Z,22.20
2018-06-17T04:53:38.612Z,22.20
2018-06-17T04:56:09.296Z,22.20
2018-06-17T04:58:38.111Z,22.30
2018-06-17T05:01:06.948Z,22.30
2018-06-17T05:03:35.942Z,22.30
2018-06-17T05:06:05.039Z,22.40
2018-06-17T05:08:34.313Z,22.40
2018-06-17T05:11:03.192Z,22.40
2018-06-17T05:13:33.310Z,22.30
2018-06-17T05:16:02.282Z,22.30
2018-06-17T05:18:32.263Z,22.40
2018-06-17T05:21:02.275Z,22.30
2018-06-17T05:23:31.638Z,22.30
2018-06-17T05:26:01.629Z,22.30
2018-06-17T05:28:31.106Z,22.30
2018-06-17T05:31:00.053Z,22.40
2018-06-17T05:33:28.872Z,22.50
2018-06-17T05:35:57.766Z,22.70
2018-06-17T05:38:27.287Z,22.80
2018-06-17T05:40:57.486Z,22.90
2018-06-17T05:43:27.539Z,22.90
2018-06-17T05:45:57.809Z,23.00
2018-06-17T05:50:56.040Z,23.20
2018-06-17T05:53:25.754Z,23.10
2018-06-17T05:55:55.264Z,23.10
2018-06-17T05:58:24.677Z,23.00
2018-06-17T06:00:53.422Z,23.00
2018-06-17T06:05:51.826Z,23.00
2018-06-17T06:08:21.097Z,23.00
2018-06-17T06:10:51.253Z,23.10
2018-06-17T06:13:20.933Z,23.20
2018-06-17T06:15:50.473Z,23.20
2018-06-17T06:18:20.043Z,23.20
2018-06-17T06:20:49.239Z,23.10
2018-06-17T06:23:18.211Z,23.10
2018-06-17T06:25:47.558Z,23.10
2018-06-17T06:28:17.067Z,23.10
2018-06-17T06:30:46.598Z,23.20
2018-06-17T06:33:15.864Z,23.20
2018-06-17T06:38:13.118Z,23.20
2018-06-17T06:40:42.405Z,23.30
2018-06-17T06:43:11.316Z,23.30
2018-06-17T06:45:41.712Z,23.40
2018-06-17T06:48:11.513Z,23.50
2018-06-17T06:50:40.869Z,23.50
2018-06-17T06:53:10.157Z,23.60
2018-06-17T06:55:39.200Z,23.60
2018-06-17T06:58:08.116Z,23.70
2018-06-17T07:00:37.765Z,23.80
2018-06-17T07:03:17.761Z,23.90
2018-06-17T07:05:57.814Z,23.90
2018-06-17T07:09:40.659Z,23.90
2018-06-17T07:12:09.576Z,24.00
2018-06-17T07:14:38.408Z,24.10
2018-06-17T07:17:18.449Z,24.20
2018-06-17T07:19:47.368Z,24.20
2018-06-17T07:22:20.934Z,24.40
2018-06-17T07:24:50.198Z,24.50
2018-06-17T07:27:30.099Z,24.50
2018-06-17T07:29:59.800Z,24.50
2018-06-17T07:32:28.504Z,24.50
2018-06-17T07:34:58.889Z,24.50
2018-06-17T07:37:27.766Z,24.50
2018-06-17T07:41:04.834Z,24.60
2018-06-17T07:43:33.727Z,24.70
2018-06-17T07:46:02.803Z,24.60
2018-06-17T07:49:46.919Z,24.60
2018-06-17T07:52:27.981Z,24.50
2018-06-17T07:54:58.836Z,24.70
2018-06-17T07:57:29.165Z,24.70
2018-06-17T07:59:58.449Z,24.70
2018-06-17T08:02:27.883Z,24.80
2018-06-17T08:04:58.064Z,24.80
2018-06-17T08:07:30.890Z,24.80
2018-06-17T08:10:00.815Z,24.90
2018-06-17T08:12:30.264Z,24.80
2018-06-17T08:14:59.582Z,25.00
2018-06-17T08:17:28.925Z,25.00
2018-06-17T08:19:58.408Z,25.10
2018-06-17T08:22:27.221Z,25.20
2018-06-17T08:24:56.293Z,25.40
2018-06-17T08:27:25.938Z,25.30
2018-06-17T08:29:55.533Z,25.40
2018-06-17T08:32:25.137Z,25.40
2018-06-17T08:34:55.325Z,25.40
2018-06-17T08:37:24.733Z,25.40
2018-06-17T08:39:55.128Z,25.30
2018-06-17T08:42:24.305Z,25.40
2018-06-17T08:44:53.308Z,25.40
2018-06-17T08:47:22.733Z,25.50
2018-06-17T08:49:52.510Z,25.50
2018-06-17T08:52:21.391Z,25.60
2018-06-17T08:54:50.135Z,25.60
2018-06-17T08:57:18.785Z,25.70
2018-06-17T08:59:47.453Z,25.70
2018-06-17T09:02:17.105Z,25.70
2018-06-17T09:04:46.034Z,25.90
2018-06-17T09:07:15.133Z,25.80
2018-06-17T09:09:44.978Z,25.90
2018-06-17T09:12:13.889Z,25.90
2018-06-17T09:14:43.436Z,25.90
2018-06-17T09:17:12.751Z,26.00
2018-06-17T09:19:42.279Z,26.10
2018-06-17T09:22:10.981Z,26.10
2018-06-17T09:24:40.056Z,26.00
2018-06-17T09:27:08.958Z,26.00
2018-06-17T09:29:38.324Z,26.10
2018-06-17T09:32:07.781Z,26.20
2018-06-17T09:34:37.408Z,26.20
2018-06-17T09:37:06.865Z,26.20
2018-06-17T09:39:36.261Z,26.20
2018-06-17T09:42:05.094Z,26.30
2018-06-17T09:44:34.856Z,26.30
2018-06-17T09:47:04.847Z,26.30
2018-06-17T09:49:34.265Z,26.30
2018-06-17T09:52:04.011Z,26.40
2018-06-17T09:54:33.364Z,26.50
2018-06-17T09:59:30.948Z,26.40
2018-06-17T10:04:28.853Z,26.40
2018-06-17T10:06:57.725Z,26.60
2018-06-17T10:12:00.505Z,26.80
2018-06-17T10:14:30.622Z,26.90
2018-06-17T10:16:59.296Z,26.90
2018-06-17T10:19:28.561Z,27.00
2018-06-17T10:21:57.822Z,27.00
2018-06-17T10:26:55.944Z,27.10
2018-06-17T10:29:26.264Z,27.20
2018-06-17T10:31:54.974Z,27.30
2018-06-17T10:34:29.852Z,27.40
2018-06-17T10:36:59.204Z,27.20
2018-06-17T10:39:29.535Z,27.20
2018-06-17T10:41:58.584Z,27.30
2018-06-17T10:44:27.388Z,27.50
2018-06-17T10:46:57.524Z,27.60
2018-06-17T10:49:27.437Z,27.60
2018-06-17T10:51:56.386Z,27.70
2018-06-17T10:54:25.221Z,27.80
2018-06-17T10:56:54.640Z,27.90
2018-06-17T10:59:24.229Z,27.90
2018-06-17T11:01:53.126Z,27.90
2018-06-17T11:04:22.158Z,27.90
2018-06-17T11:06:51.255Z,27.80
2018-06-17T11:09:20.755Z,27.80
2018-06-17T11:11:50.726Z,27.60
2018-06-17T11:19:17.796Z,27.50
2018-06-17T11:24:16.547Z,27.30
2018-06-17T11:26:45.457Z,27.20
2018-06-17T11:29:14.319Z,27.30
2018-06-17T11:31:43.356Z,27.40
2018-06-17T11:34:14.878Z,27.50
2018-06-17T11:36:43.815Z,27.70
2018-06-17T11:39:13.380Z,27.80
2018-06-17T11:41:42.249Z,27.90
2018-06-17T11:44:11.439Z,28.00
2018-06-17T11:46:40.335Z,27.90
2018-06-17T11:49:09.676Z,28.00
2018-06-17T11:51:40.086Z,27.90
2018-06-17T11:54:09.795Z,27.90
2018-06-17T11:56:38.643Z,27.80
2018-06-17T11:59:08.396Z,28.00
2018-06-17T12:01:37.386Z,27.90
2018-06-17T12:04:07.070Z,28.00
2018-06-17T12:06:36.096Z,28.10
2018-06-17T12:09:08.020Z,28.30
2018-06-17T12:11:37.062Z,28.30
2018-06-17T12:14:06.089Z,28.20
2018-06-17T12:16:36.185Z,28.30
2018-06-17T12:19:06.682Z,28.50
2018-06-17T12:21:35.468Z,28.40
2018-06-17T12:24:06.052Z,28.50
2018-06-17T12:26:35.161Z,28.70
2018-06-17T12:29:04.653Z,28.90
2018-06-17T12:31:34.079Z,28.90
2018-06-17T12:34:04.073Z,28.80
2018-06-17T12:36:32.928Z,28.90
2018-06-17T12:39:01.691Z,28.80
2018-06-17T12:41:30.385Z,28.80
2018-06-17T12:44:00.406Z,28.70
2018-06-17T12:46:29.326Z,28.70
2018-06-17T12:48:58.402Z,28.60
2018-06-17T12:51:28.489Z,28.50
2018-06-17T12:53:57.974Z,28.70
2018-06-17T12:56:26.817Z,28.80
2018-06-17T12:58:56.273Z,28.90
2018-06-17T13:01:25.158Z,29.00
2018-06-17T13:03:55.617Z,29.00
2018-06-17T13:06:24.829Z,29.00
2018-06-17T13:08:54.597Z,28.80
2018-06-17T13:11:23.965Z,28.50
2018-06-17T13:13:52.719Z,28.40
2018-06-17T13:16:21.742Z,28.20
2018-06-17T13:18:51.644Z,28.00
2018-06-17T13:21:21.857Z,28.10
2018-06-17T13:23:51.674Z,27.90
2018-06-17T13:26:20.901Z,27.90
2018-06-17T13:28:49.908Z,27.80
2018-06-17T13:31:19.320Z,27.60
2018-06-17T13:33:48.290Z,27.60
2018-06-17T13:36:17.038Z,27.60
2018-06-17T13:38:45.908Z,27.50
2018-06-17T13:41:14.821Z,27.40
2018-06-17T13:43:43.750Z,27.30
2018-06-17T13:46:13.405Z,27.10
2018-06-17T13:48:42.861Z,27.10
2018-06-17T13:51:12.020Z,27.10
2018-06-17T13:56:10.036Z,27.00
2018-06-17T13:58:39.110Z,27.00
2018-06-17T14:01:08.523Z,26.90
2018-06-17T14:03:37.837Z,26.90
2018-06-17T14:06:06.754Z,26.90
2018-06-17T14:08:36.661Z,26.90
2018-06-17T14:11:05.934Z,26.90
2018-06-17T14:13:36.233Z,26.90
2018-06-17T14:16:05.075Z,26.90
2018-06-17T14:18:34.802Z,26.80
2018-06-17T14:21:03.789Z,26.80
2018-06-17T14:23:33.399Z,26.80
2018-06-17T14:26:02.357Z,26.70
2018-06-17T14:28:32.184Z,26.70
2018-06-17T14:31:01.282Z,26.70
2018-06-17T14:33:30.161Z,26.80
2018-06-17T14:35:59.897Z,26.80
2018-06-17T14:38:29.241Z,26.70
2018-06-17T14:41:03.904Z,26.70
2018-06-17T14:43:37.987Z,26.70
2018-06-17T14:46:12.002Z,26.70
2018-06-17T14:48:46.850Z,26.60
2018-06-17T14:51:21.274Z,26.60
2018-06-17T14:53:50.920Z,26.60
2018-06-17T14:56:20.119Z,26.60
2018-06-17T14:58:51.905Z,26.60
2018-06-17T15:01:20.819Z,26.70
2018-06-17T15:03:50.971Z,26.70
2018-06-17T15:06:20.086Z,26.70
2018-06-17T15:08:49.721Z,26.70
2018-06-17T15:11:18.881Z,26.80
2018-06-17T15:13:48.637Z,26.80
2018-06-17T15:16:19.075Z,26.70
2018-06-17T15:18:48.676Z,26.70
2018-06-17T15:21:17.542Z,26.70
2018-06-17T15:23:47.092Z,26.80
2018-06-17T15:26:17.244Z,26.80
2018-06-17T15:28:45.968Z,26.80
2018-06-17T15:31:20.215Z,26.80
2018-06-17T15:33:54.173Z,26.80
2018-06-17T15:36:28.256Z,26.90
2018-06-17T15:38:58.128Z,27.00
2018-06-17T15:41:32.617Z,27.00
2018-06-17T15:44:02.373Z,27.00
2018-06-17T15:46:31.202Z,27.00
2018-06-17T15:49:00.415Z,26.90
2018-06-17T15:51:29.484Z,26.90
2018-06-17T15:53:59.117Z,26.80
2018-06-17T15:56:28.168Z,26.80
2018-06-17T15:58:57.492Z,26.80
2018-06-17T16:01:27.328Z,26.80
2018-06-17T16:03:56.821Z,26.80
2018-06-17T16:06:26.902Z,26.90
2018-06-17T16:08:55.901Z,26.90
2018-06-17T16:13:59.457Z,26.80
2018-06-17T16:16:33.900Z,26.70
2018-06-17T16:21:37.198Z,26.80
2018-06-17T16:24:06.880Z,26.80
2018-06-17T16:26:36.250Z,26.80
2018-06-17T16:29:05.508Z,26.80
2018-06-17T16:31:35.142Z,26.90
2018-06-17T16:34:04.347Z,26.90
2018-06-17T16:36:33.790Z,26.90
2018-06-17T16:39:03.455Z,26.80
2018-06-17T16:41:33.856Z,26.70
2018-06-17T16:44:02.724Z,26.80
2018-06-17T16:46:31.440Z,26.60
2018-06-17T16:49:00.329Z,26.70
2018-06-17T16:51:34.256Z,26.60
2018-06-17T16:54:08.176Z,26.60
2018-06-17T16:56:42.346Z,26.50
2018-06-17T16:59:17.217Z,26.40
2018-06-17T17:01:46.148Z,26.40
2018-06-17T17:04:16.141Z,26.40
2018-06-17T17:06:45.222Z,26.30
2018-06-17T17:09:18.375Z,26.30
2018-06-17T17:11:47.244Z,26.30
2018-06-17T17:14:17.857Z,26.30
2018-06-17T17:16:46.656Z,26.30
2018-06-17T17:21:44.676Z,26.30
2018-06-17T17:24:13.812Z,26.40
2018-06-17T17:26:43.689Z,26.30
2018-06-17T17:29:12.577Z,26.30
2018-06-17T17:31:46.817Z,26.40
2018-06-17T17:34:21.530Z,26.30
2018-06-17T17:36:55.760Z,26.30
2018-06-17T17:39:29.911Z,26.30
2018-06-17T17:41:59.553Z,26.40
2018-06-17T17:44:33.131Z,26.40
2018-06-17T17:47:07.034Z,26.30
2018-06-17T17:49:35.813Z,26.30
2018-06-17T17:52:04.548Z,26.30
2018-06-17T17:54:34.935Z,26.30
2018-06-17T17:59:33.901Z,26.30
2018-06-17T18:02:03.971Z,26.30
2018-06-17T18:07:03.239Z,26.30
2018-06-17T18:09:33.277Z,26.30
2018-06-17T18:12:03.919Z,26.40
2018-06-17T18:14:34.195Z,26.40
2018-06-17T18:17:03.967Z,26.50
2018-06-17T18:19:33.141Z,26.50
2018-06-17T18:22:02.653Z,26.50
2018-06-17T18:24:31.933Z,26.40
2018-06-17T18:27:06.655Z,26.50
2018-06-17T18:29:41.397Z,26.40
2018-06-17T18:32:15.814Z,26.50
2018-06-17T18:34:50.616Z,26.50
2018-06-17T18:37:19.476Z,26.40
2018-06-17T18:39:48.421Z,26.30
2018-06-17T18:42:17.374Z,26.30
2018-06-17T18:44:46.106Z,26.30
2018-06-17T18:47:15.015Z,26.10
2018-06-17T18:49:44.513Z,26.10
2018-06-17T18:52:14.902Z,26.20
2018-06-17T18:54:43.921Z,26.10
2018-06-17T18:57:12.781Z,26.10
2018-06-17T18:59:42.722Z,26.10
2018-06-17T19:02:11.570Z,26.10
2018-06-17T19:07:09.986Z,26.10
2018-06-17T19:09:45.171Z,26.10
2018-06-17T19:12:20.458Z,26.10
2018-06-17T19:14:54.620Z,26.10
2018-06-17T19:17:29.216Z,26.10
2018-06-17T19:19:58.083Z,26.00
2018-06-17T19:24:56.011Z,26.00
2018-06-17T19:27:24.938Z,25.90
2018-06-17T19:29:53.989Z,25.90
2018-06-17T19:32:22.796Z,25.90
2018-06-17T19:34:52.432Z,25.90
2018-06-17T19:37:21.507Z,25.90
2018-06-17T19:39:50.334Z,25.90
2018-06-17T19:42:19.317Z,25.90
2018-06-17T19:44:48.163Z,25.90
2018-06-17T19:47:18.716Z,25.90
2018-06-17T19:49:52.822Z,25.90
2018-06-17T19:52:26.785Z,25.90
2018-06-17T19:55:01.703Z,25.90
2018-06-17T19:57:36.485Z,25.90
2018-06-17T20:00:11.381Z,25.90
2018-06-17T20:05:09.206Z,25.90
2018-06-17T20:07:37.891Z,25.90
2018-06-17T20:10:07.661Z,25.90
2018-06-17T20:12:37.010Z,25.80
2018-06-17T20:15:06.280Z,25.80
2018-06-17T20:17:35.157Z,25.80
2018-06-17T20:20:03.854Z,25.80
2018-06-17T20:22:32.816Z,25.80
2018-06-17T20:25:03.993Z,25.80
2018-06-17T20:27:34.228Z,25.80
2018-06-17T20:30:03.267Z,25.80
2018-06-17T20:34:44.735Z,25.80
2018-06-17T20:39:57.936Z,25.80
2018-06-17T20:42:32.097Z,25.80
2018-06-17T20:45:01.579Z,25.70
2018-06-17T20:47:30.698Z,25.80
2018-06-17T20:49:59.770Z,25.80
2018-06-17T20:52:28.661Z,25.70
2018-06-17T20:54:57.478Z,25.70
2018-06-17T20:57:26.743Z,25.80
2018-06-17T20:59:55.674Z,25.80
2018-06-17T21:02:24.384Z,25.80
2018-06-17T21:04:53.235Z,25.80
2018-06-17T21:07:21.962Z,25.80
2018-06-17T21:09:51.090Z,25.60
2018-06-17T21:12:21.135Z,25.50
2018-06-17T21:14:50.584Z,25.60
2018-06-17T21:17:20.392Z,25.40
2018-06-17T21:19:55.248Z,25.40
2018-06-17T21:27:37.277Z,25.00
2018-06-17T21:30:06.778Z,24.90
2018-06-17T21:32:36.485Z,24.90
2018-06-17T21:35:06.461Z,24.70
2018-06-17T21:37:35.809Z,24.80
2018-06-17T21:40:05.240Z,24.60
2018-06-17T21:42:34.183Z,24.50
2018-06-17T21:45:07.949Z,24.50
2018-06-17T21:47:37.317Z,24.30
2018-06-17T21:50:06.887Z,24.20
2018-06-17T21:52:36.755Z,24.20
2018-06-17T21:57:34.992Z,24.10
2018-06-17T22:00:04.531Z,24.00
2018-06-17T22:02:36.263Z,24.00
2018-06-17T22:05:05.641Z,23.90
2018-06-17T22:07:39.333Z,23.90
2018-06-17T22:10:13.793Z,23.90
2018-06-17T22:12:47.802Z,23.80
2018-06-17T22:15:22.729Z,23.80
2018-06-17T22:17:53.209Z,23.90
2018-06-17T22:22:51.723Z,23.80
2018-06-17T22:25:20.570Z,23.80
2018-06-17T22:27:49.267Z,23.80
2018-06-17T22:30:18.853Z,23.90
2018-06-17T22:32:49.289Z,23.80
2018-06-17T22:35:19.332Z,23.80
2018-06-17T22:40:17.534Z,23.80
2018-06-17T22:45:16.176Z,23.60
2018-06-17T22:47:50.407Z,23.60
2018-06-17T22:50:19.271Z,23.60
2018-06-17T22:52:58.945Z,23.60
2018-06-17T22:55:28.454Z,23.60
2018-06-17T22:58:02.676Z,23.50
2018-06-17T23:00:37.548Z,23.50
2018-06-17T23:05:46.178Z,23.60
2018-06-17T23:08:21.475Z,23.50
2018-06-17T23:10:50.320Z,23.60
2018-06-17T23:13:19.141Z,23.70
2018-06-17T23:15:49.272Z,23.60
2018-06-17T23:18:18.176Z,23.70
2018-06-17T23:20:51.292Z,23.60
2018-06-17T23:25:48.825Z,23.70
2018-06-17T23:28:17.584Z,23.60
2018-06-17T23:30:47.574Z,23.50
2018-06-17T23:33:16.997Z,23.50
2018-06-17T23:38:15.801Z,23.60
2018-06-17T23:43:12.998Z,23.70
2018-06-17T23:45:48.534Z,23.60
2018-06-17T23:48:22.736Z,23.60
2018-06-17T23:50:56.714Z,23.40
2018-06-17T23:55:33.942Z,23.50
2018-06-17T23:58:03.307Z,23.40
